Kalamakion, Greece
Current Conditions -  °F | °C
As of 1:20 PM on Sunday 25 Jan 2015 (Local Time) from LGAV Reporting Station
Scattered Clouds Scattered Clouds  
Wind Chill: 59°   Ceiling: Unl
Heat Index: 59°   Visibility: 6mi
Dew Point: 48°   Wind: 12mph
Humidity: 67%   Direction: 200°SSW
Pressure: 29.8"   Gusts: NA
Location:  37.92°N, 23.72°E
Report Text: LGAV 251020Z 20010KT 9999 SCT025 15/09 Q1009 NOSIG
Loading
Personal Weather Stations






























Interactive Weather Map New forecast layout! Learn more

10-Day Weather Forecast

Advertisements
Track Severe Weather on mobile